UWKE 060600Z 22001MPS 7000 -SN SCT006 OVC026 M15/M17 Q1039 R21/490250 NOSIG RMK OBST OBSC QFE762/1016
QNH:(hPa/inHg/mmHg)1039 / 30.68 / 779
QFE:(hPa/inHg/mmHg)1015 / 29.98 / 761
Temperature-15
Dew Point-17
Visibility7000
WeatherLight Snow
Cloud CoverSCT (600);
OVC (2600);
Transition Height700 m./3000 ft.
Transition LevelFL40
SQUAWK